Time;durP1;ratioP1;P1;durP2;ratioP2;P2;SDS_P1;SDS_P2;PMS_P1;PMS_P2;Temp;Humidity;BMP_temperature;BMP_pressure;BME280_temperature;BME280_humidity;BME280_pressure;Samples;Min_cycle;Max_cycle;Signal;HPM_P1;HPM_P2
2023/07/19 00:02:01;;;;;;;7.25;2.50;;;;;;;;;;5113526;28;20182;-58
2023/07/19 00:04:28;;;;;;;8.05;2.10;;;;;;;;;;5109188;28;20031;-58
2023/07/19 00:06:55;;;;;;;5.85;1.80;;;;;;;;;;5108739;28;20027;-59
2023/07/19 00:09:21;;;;;;;4.47;1.77;;;;;;;;;;5108586;28;20054;-60
2023/07/19 00:11:48;;;;;;;5.78;2.13;;;;;;;;;;5108502;28;20023;-60
2023/07/19 00:14:15;;;;;;;9.75;2.08;;;;;;;;;;5112360;28;20019;-60
2023/07/19 00:16:42;;;;;;;12.45;2.90;;;;;;;;;;5113558;28;20028;-60
2023/07/19 00:19:09;;;;;;;3.92;1.75;;;;;;;;;;5113303;28;20356;-59
2023/07/19 00:21:36;;;;;;;3.78;2.10;;;;;;;;;;5113652;28;20035;-59
2023/07/19 00:24:03;;;;;;;12.60;2.65;;;;;;;;;;5113569;28;20622;-60
2023/07/19 00:26:30;;;;;;;3.00;1.60;;;;;;;;;;5109527;28;20031;-59
2023/07/19 00:28:56;;;;;;;2.90;1.52;;;;;;;;;;5108283;28;20054;-59
2023/07/19 00:31:23;;;;;;;5.65;2.15;;;;;;;;;;5108008;28;20494;-59
2023/07/19 00:33:50;;;;;;;10.05;2.78;;;;;;;;;;5108186;28;20494;-60
2023/07/19 00:36:17;;;;;;;5.85;1.67;;;;;;;;;;5110275;28;20059;-59
2023/07/19 00:38:43;;;;;;;12.70;1.95;;;;;;;;;;5113472;28;20019;-59
2023/07/19 00:41:10;;;;;;;13.48;1.52;;;;;;;;;;5113390;28;20024;-59
2023/07/19 00:43:37;;;;;;;9.32;1.65;;;;;;;;;;5113257;28;20020;-59
2023/07/19 00:46:04;;;;;;;6.82;2.05;;;;;;;;;;5113343;28;20045;-58
2023/07/19 00:48:31;;;;;;;5.95;1.92;;;;;;;;;;5109912;28;20019;-58
2023/07/19 00:50:59;;;;;;;13.02;1.60;;;;;;;;;;5107841;28;20035;-59
2023/07/19 00:53:26;;;;;;;8.65;2.42;;;;;;;;;;5107241;28;20512;-60
2023/07/19 00:55:53;;;;;;;4.05;1.77;;;;;;;;;;5107314;28;20028;-59
2023/07/19 00:58:23;;;;;;;11.80;2.28;;;;;;;;;;5110239;28;20531;-60
2023/07/19 01:00:52;;;;;;;4.00;1.67;;;;;;;;;;5113152;28;20028;-61
2023/07/19 01:03:20;;;;;;;2.90;1.50;;;;;;;;;;5112967;28;20047;-62
2023/07/19 01:05:47;;;;;;;6.27;1.90;;;;;;;;;;5111902;28;20147;-62
2023/07/19 01:08:14;;;;;;;3.77;1.77;;;;;;;;;;5112213;28;20161;-63
2023/07/19 01:10:41;;;;;;;4.47;2.40;;;;;;;;;;5107411;28;20019;-63
2023/07/19 01:13:12;;;;;;;4.83;2.40;;;;;;;;;;5107486;28;20062;-62
2023/07/19 01:15:41;;;;;;;4.67;1.93;;;;;;;;;;5106935;28;20027;-63
2023/07/19 01:18:09;;;;;;;5.57;1.90;;;;;;;;;;5107244;28;20670;-63
2023/07/19 01:20:36;;;;;;;5.27;1.97;;;;;;;;;;5109846;28;20020;-62
2023/07/19 01:23:04;;;;;;;3.07;1.43;;;;;;;;;;5112508;28;20059;-62
2023/07/19 01:25:31;;;;;;;6.10;2.17;;;;;;;;;;5110952;28;20032;-62
2023/07/19 01:27:58;;;;;;;2.27;1.10;;;;;;;;;;5112021;28;20115;-62
2023/07/19 01:30:25;;;;;;;4.30;1.73;;;;;;;;;;5112572;28;20433;-62
2023/07/19 01:32:52;;;;;;;3.00;1.37;;;;;;;;;;5109980;28;20038;-62
2023/07/19 01:35:19;;;;;;;3.97;1.23;;;;;;;;;;5107157;28;20036;-62
2023/07/19 01:37:46;;;;;;;2.00;1.27;;;;;;;;;;5107550;28;20055;-62
2023/07/19 01:40:14;;;;;;;2.63;1.90;;;;;;;;;;5107232;28;20035;-62
2023/07/19 01:42:41;;;;;;;14.30;3.00;;;;;;;;;;5108877;28;20482;-63
2023/07/19 01:45:08;;;;;;;5.40;2.03;;;;;;;;;;5112439;28;20019;-62
2023/07/19 01:47:35;;;;;;;4.63;1.70;;;;;;;;;;5113731;28;20766;-62
2023/07/19 01:50:02;;;;;;;5.37;2.03;;;;;;;;;;5116670;28;20027;-62
2023/07/19 01:52:29;;;;;;;5.77;2.03;;;;;;;;;;5116412;28;20023;-62
2023/07/19 01:54:56;;;;;;;6.23;2.17;;;;;;;;;;5114376;28;20019;-62
2023/07/19 01:57:23;;;;;;;4.17;1.70;;;;;;;;;;5110706;28;20110;-62
2023/07/19 01:59:50;;;;;;;26.67;2.40;;;;;;;;;;5110597;28;20031;-62
2023/07/19 02:02:16;;;;;;;7.03;2.70;;;;;;;;;;5110907;28;20058;-62
2023/07/19 02:04:43;;;;;;;6.27;2.83;;;;;;;;;;5111925;28;20028;-62
2023/07/19 02:07:10;;;;;;;6.33;2.80;;;;;;;;;;5115552;28;20509;-62
2023/07/19 02:09:37;;;;;;;10.60;4.10;;;;;;;;;;5115627;28;20023;-62
2023/07/19 02:12:04;;;;;;;10.07;3.27;;;;;;;;;;5115905;28;20034;-62
2023/07/19 02:14:30;;;;;;;18.53;4.90;;;;;;;;;;5115582;28;20076;-62
2023/07/19 02:16:57;;;;;;;21.23;4.00;;;;;;;;;;5113571;27;21936;-62
2023/07/19 02:19:24;;;;;;;6.17;2.67;;;;;;;;;;5109760;28;20043;-62
2023/07/19 02:21:51;;;;;;;9.70;2.47;;;;;;;;;;5106119;28;20036;-62
2023/07/19 02:24:17;;;;;;;11.23;2.63;;;;;;;;;;5110806;28;20378;-62
2023/07/19 02:26:44;;;;;;;38.33;3.47;;;;;;;;;;5110482;28;20027;-62
2023/07/19 02:29:11;;;;;;;21.40;2.97;;;;;;;;;;5114871;28;20106;-62
2023/07/19 02:31:38;;;;;;;10.03;2.23;;;;;;;;;;5115325;28;20024;-62
2023/07/19 02:34:09;;;;;;;8.60;2.47;;;;;;;;;;5097232;28;20031;-62
2023/07/19 02:36:36;;;;;;;34.53;3.67;;;;;;;;;;5115332;28;20028;-62
2023/07/19 02:39:03;;;;;;;7.93;2.87;;;;;;;;;;5111005;28;20088;-62
2023/07/19 02:41:30;;;;;;;7.10;2.60;;;;;;;;;;5107773;28;20110;-62
2023/07/19 02:43:57;;;;;;;5.40;2.53;;;;;;;;;;5110369;28;20073;-62
2023/07/19 02:46:24;;;;;;;5.73;2.27;;;;;;;;;;5108823;28;20023;-62
2023/07/19 02:48:51;;;;;;;5.60;2.53;;;;;;;;;;5109751;28;20023;-62
2023/07/19 02:51:17;;;;;;;21.47;2.40;;;;;;;;;;5114656;28;20038;-62
2023/07/19 02:53:44;;;;;;;6.17;2.80;;;;;;;;;;5114530;28;20078;-62
2023/07/19 02:56:11;;;;;;;9.70;1.73;;;;;;;;;;5115194;28;20086;-62
2023/07/19 02:58:38;;;;;;;3.13;1.57;;;;;;;;;;5114415;28;20474;-62
2023/07/19 03:01:05;;;;;;;14.60;3.07;;;;;;;;;;5115078;28;20090;-62
2023/07/19 03:03:32;;;;;;;7.30;2.30;;;;;;;;;;5109852;28;20474;-62
2023/07/19 03:06:01;;;;;;;15.57;2.80;;;;;;;;;;5110084;28;20054;-62
2023/07/19 03:08:28;;;;;;;11.73;2.43;;;;;;;;;;5109388;28;20505;-62
2023/07/19 03:10:55;;;;;;;11.13;2.20;;;;;;;;;;5109656;28;20025;-62
2023/07/19 03:13:22;;;;;;;7.40;2.00;;;;;;;;;;5114365;28;20015;-62
2023/07/19 03:15:49;;;;;;;11.77;2.20;;;;;;;;;;5119763;27;20035;-61
2023/07/19 03:18:17;;;;;;;2.57;1.70;;;;;;;;;;5135549;27;20079;-62
2023/07/19 03:20:43;;;;;;;2.27;1.37;;;;;;;;;;5135508;27;20437;-62
2023/07/19 03:23:16;;;;;;;6.43;2.47;;;;;;;;;;5135539;27;20389;-62
2023/07/19 03:25:43;;;;;;;9.57;2.30;;;;;;;;;;5130340;27;20023;-62
2023/07/19 03:28:09;;;;;;;11.63;2.40;;;;;;;;;;5130002;27;20145;-62
2023/07/19 03:30:36;;;;;;;5.50;2.07;;;;;;;;;;5129937;27;20031;-62
2023/07/19 03:33:03;;;;;;;12.03;2.87;;;;;;;;;;5129969;27;20152;-62
2023/07/19 03:35:31;;;;;;;5.50;2.57;;;;;;;;;;5133966;27;20034;-62
2023/07/19 03:37:57;;;;;;;7.57;2.93;;;;;;;;;;5134990;27;20461;-62
2023/07/19 03:40:24;;;;;;;13.80;2.37;;;;;;;;;;5135096;27;20034;-62
2023/07/19 03:42:51;;;;;;;14.20;3.77;;;;;;;;;;5115250;27;20094;-62
2023/07/19 03:45:18;;;;;;;7.13;2.33;;;;;;;;;;5114341;28;20394;-62
2023/07/19 03:47:45;;;;;;;9.27;2.60;;;;;;;;;;5110183;28;20554;-62
2023/07/19 03:50:12;;;;;;;5.17;2.23;;;;;;;;;;5108939;28;20173;-62
2023/07/19 03:52:39;;;;;;;2.83;1.83;;;;;;;;;;5108910;28;20486;-62
2023/07/19 03:55:06;;;;;;;5.50;2.20;;;;;;;;;;5108849;28;20030;-62
2023/07/19 03:57:33;;;;;;;5.07;1.60;;;;;;;;;;5112156;28;20023;-62
2023/07/19 04:00:00;;;;;;;13.13;2.30;;;;;;;;;;5113880;28;20031;-61
2023/07/19 04:02:27;;;;;;;17.87;2.50;;;;;;;;;;5113954;28;20026;-62
2023/07/19 04:04:54;;;;;;;17.83;2.00;;;;;;;;;;5114067;28;20023;-62
2023/07/19 04:07:21;;;;;;;5.47;2.27;;;;;;;;;;5114043;28;20434;-62
2023/07/19 04:09:48;;;;;;;12.53;1.93;;;;;;;;;;5109801;28;20031;-60
2023/07/19 04:12:14;;;;;;;8.43;2.33;;;;;;;;;;5108572;28;20084;-59
2023/07/19 04:14:41;;;;;;;12.90;2.80;;;;;;;;;;5108402;28;20098;-60
2023/07/19 04:17:08;;;;;;;3.17;2.10;;;;;;;;;;5124324;27;20035;-60
2023/07/19 04:19:35;;;;;;;4.77;2.23;;;;;;;;;;5111293;27;20184;-60
2023/07/19 04:22:02;;;;;;;5.57;2.20;;;;;;;;;;5112779;28;20478;-60
2023/07/19 04:24:29;;;;;;;5.00;2.53;;;;;;;;;;5104042;28;20081;-60
2023/07/19 04:26:56;;;;;;;13.93;3.40;;;;;;;;;;5113554;28;20438;-60
2023/07/19 04:29:23;;;;;;;6.53;2.07;;;;;;;;;;5113138;28;20028;-60
2023/07/19 04:31:50;;;;;;;7.87;2.47;;;;;;;;;;5110661;28;20026;-60
2023/07/19 04:34:17;;;;;;;9.47;3.13;;;;;;;;;;5108220;28;20094;-60
2023/07/19 04:36:45;;;;;;;6.87;2.17;;;;;;;;;;5106678;28;20031;-60
2023/07/19 04:39:11;;;;;;;9.33;2.33;;;;;;;;;;5107765;28;20100;-60
2023/07/19 04:41:38;;;;;;;18.83;2.73;;;;;;;;;;5109214;28;20023;-59
2023/07/19 04:44:05;;;;;;;5.97;1.80;;;;;;;;;;5113180;28;20020;-60
2023/07/19 04:46:32;;;;;;;6.60;2.67;;;;;;;;;;5113359;28;20024;-60
2023/07/19 04:48:59;;;;;;;13.13;3.60;;;;;;;;;;5112691;28;20043;-60
2023/07/19 04:51:25;;;;;;;5.43;2.77;;;;;;;;;;5113233;28;20104;-59
2023/07/19 04:53:53;;;;;;;18.60;3.50;;;;;;;;;;5110582;28;20035;-60
2023/07/19 04:56:20;;;;;;;9.50;3.17;;;;;;;;;;5107744;28;20474;-60
2023/07/19 04:58:46;;;;;;;10.27;3.33;;;;;;;;;;5107703;28;20046;-60
2023/07/19 05:01:13;;;;;;;4.63;2.70;;;;;;;;;;5107497;28;20016;-60
2023/07/19 05:03:40;;;;;;;10.67;3.20;;;;;;;;;;5109094;28;20125;-60
2023/07/19 05:06:07;;;;;;;6.27;2.53;;;;;;;;;;5112310;28;20466;-60
2023/07/19 05:08:34;;;;;;;7.17;2.00;;;;;;;;;;5112681;28;20521;-59
2023/07/19 05:11:01;;;;;;;7.47;2.60;;;;;;;;;;5111348;28;20042;-60
2023/07/19 05:13:28;;;;;;;21.87;3.70;;;;;;;;;;5112631;28;20119;-59
2023/07/19 05:15:56;;;;;;;5.10;2.80;;;;;;;;;;5110655;28;20035;-60
2023/07/19 05:18:22;;;;;;;9.70;3.40;;;;;;;;;;5107335;28;20023;-60
2023/07/19 05:20:49;;;;;;;7.77;2.90;;;;;;;;;;5107449;28;20509;-60
2023/07/19 05:23:16;;;;;;;13.33;3.33;;;;;;;;;;5106742;28;20024;-59
2023/07/19 05:25:43;;;;;;;21.07;2.67;;;;;;;;;;5105749;28;20046;-58
2023/07/19 05:28:10;;;;;;;4.70;2.70;;;;;;;;;;5110627;28;20059;-58
2023/07/19 05:30:36;;;;;;;8.00;2.60;;;;;;;;;;5110161;28;20020;-59
2023/07/19 05:33:03;;;;;;;9.60;2.63;;;;;;;;;;5110732;28;20125;-59
2023/07/19 05:35:33;;;;;;;4.10;2.03;;;;;;;;;;5110488;28;20107;-58
2023/07/19 05:38:00;;;;;;;4.00;2.03;;;;;;;;;;5109553;28;20042;-58
2023/07/19 05:40:27;;;;;;;9.80;3.10;;;;;;;;;;5106318;28;20364;-59
2023/07/19 05:42:53;;;;;;;8.60;2.90;;;;;;;;;;5107329;28;20020;-59
2023/07/19 05:45:20;;;;;;;6.33;1.97;;;;;;;;;;5106957;28;20047;-59
2023/07/19 05:47:48;;;;;;;5.47;2.90;;;;;;;;;;5107235;28;20024;-59
2023/07/19 05:50:15;;;;;;;5.17;2.60;;;;;;;;;;5112394;28;20423;-59
2023/07/19 05:52:42;;;;;;;8.40;2.60;;;;;;;;;;5112287;28;20055;-59
2023/07/19 05:55:09;;;;;;;4.57;2.57;;;;;;;;;;5112181;28;20032;-58
2023/07/19 05:57:35;;;;;;;9.03;2.97;;;;;;;;;;5111915;28;20094;-59
2023/07/19 06:00:13;;;;;;;6.60;3.07;;;;;;;;;;5112127;28;20506;-59
2023/07/19 06:02:41;;;;;;;5.87;2.83;;;;;;;;;;5105759;28;20032;-58
2023/07/19 06:05:08;;;;;;;35.30;3.47;;;;;;;;;;5106119;28;20027;-59
2023/07/19 06:07:35;;;;;;;6.97;2.30;;;;;;;;;;5106644;28;20035;-59
2023/07/19 06:10:04;;;;;;;10.37;2.80;;;;;;;;;;5106161;28;20525;-58
2023/07/19 06:12:31;;;;;;;29.07;3.03;;;;;;;;;;5110320;28;20474;-59
2023/07/19 06:14:58;;;;;;;6.50;3.10;;;;;;;;;;5111351;28;20046;-58
2023/07/19 06:17:25;;;;;;;7.73;3.43;;;;;;;;;;5112161;28;20020;-58
2023/07/19 06:19:51;;;;;;;16.90;3.07;;;;;;;;;;5112016;28;20161;-58
2023/07/19 06:22:18;;;;;;;8.00;3.70;;;;;;;;;;5112139;28;20035;-59
2023/07/19 06:24:45;;;;;;;23.10;3.67;;;;;;;;;;5107875;28;20108;-59
2023/07/19 06:27:12;;;;;;;7.30;2.53;;;;;;;;;;5107272;28;20425;-59
2023/07/19 06:29:38;;;;;;;7.03;2.63;;;;;;;;;;5107317;28;20072;-58
2023/07/19 06:32:06;;;;;;;10.17;3.10;;;;;;;;;;5107401;28;20032;-58
2023/07/19 06:34:33;;;;;;;11.57;3.13;;;;;;;;;;5110074;28;20165;-58
2023/07/19 06:36:59;;;;;;;11.83;4.20;;;;;;;;;;5115356;28;20024;-58
2023/07/19 06:39:26;;;;;;;4.90;2.53;;;;;;;;;;5115735;28;20402;-58
2023/07/19 06:41:53;;;;;;;3.93;2.33;;;;;;;;;;5115549;28;20026;-59
2023/07/19 06:44:20;;;;;;;21.77;3.83;;;;;;;;;;5115147;28;20104;-58
2023/07/19 06:46:46;;;;;;;8.03;3.13;;;;;;;;;;5115540;28;20023;-58
2023/07/19 06:49:13;;;;;;;6.10;2.83;;;;;;;;;;5111952;28;20031;-59
2023/07/19 06:51:40;;;;;;;21.73;3.50;;;;;;;;;;5110566;28;20128;-58
2023/07/19 06:54:07;;;;;;;9.70;3.80;;;;;;;;;;5110600;28;20439;-58
2023/07/19 06:56:34;;;;;;;9.60;2.77;;;;;;;;;;5110525;28;20070;-59
2023/07/19 06:59:01;;;;;;;5.50;2.23;;;;;;;;;;5110516;28;20023;-58
2023/07/19 07:01:27;;;;;;;8.10;2.53;;;;;;;;;;5114125;28;20378;-58
2023/07/19 07:03:54;;;;;;;8.53;2.90;;;;;;;;;;5115289;28;20474;-59
2023/07/19 07:06:21;;;;;;;10.60;2.97;;;;;;;;;;5115225;28;20098;-58
2023/07/19 07:08:47;;;;;;;8.27;2.83;;;;;;;;;;5115042;28;20020;-58
2023/07/19 07:11:14;;;;;;;3.70;2.07;;;;;;;;;;5114955;28;20015;-58
2023/07/19 07:13:41;;;;;;;6.07;2.40;;;;;;;;;;5112091;28;20035;-59
2023/07/19 07:16:09;;;;;;;14.63;3.40;;;;;;;;;;5110169;28;20023;-58
2023/07/19 07:18:37;;;;;;;5.73;2.53;;;;;;;;;;5109610;28;20444;-58
2023/07/19 07:21:04;;;;;;;6.50;2.57;;;;;;;;;;5109867;28;20032;-58
2023/07/19 07:23:31;;;;;;;6.57;2.03;;;;;;;;;;5110121;28;20012;-58
2023/07/19 07:25:58;;;;;;;8.20;3.03;;;;;;;;;;5113122;28;20028;-58
2023/07/19 07:28:24;;;;;;;6.63;2.47;;;;;;;;;;5114442;28;20026;-58
2023/07/19 07:30:51;;;;;;;4.77;2.73;;;;;;;;;;5114748;28;20027;-58
2023/07/19 07:33:19;;;;;;;3.83;1.90;;;;;;;;;;5114558;28;20031;-58
2023/07/19 07:35:46;;;;;;;9.63;2.87;;;;;;;;;;5114318;28;20116;-58
2023/07/19 07:38:14;;;;;;;13.57;3.13;;;;;;;;;;5112095;28;20074;-58
2023/07/19 07:40:41;;;;;;;4.43;2.53;;;;;;;;;;5109704;28;20063;-58
2023/07/19 07:43:08;;;;;;;7.47;2.40;;;;;;;;;;5109782;28;20040;-58
2023/07/19 07:45:35;;;;;;;6.70;2.53;;;;;;;;;;5108378;28;20020;-58
2023/07/19 07:48:01;;;;;;;36.40;4.03;;;;;;;;;;5109437;28;20032;-58
2023/07/19 07:50:28;;;;;;;4.93;2.03;;;;;;;;;;5112137;28;20402;-58
2023/07/19 07:52:55;;;;;;;5.23;2.43;;;;;;;;;;5114044;28;20482;-58
2023/07/19 07:55:22;;;;;;;6.10;2.00;;;;;;;;;;5114235;28;20062;-59
2023/07/19 07:57:49;;;;;;;7.43;2.93;;;;;;;;;;5114411;28;20454;-58
2023/07/19 08:00:18;;;;;;;7.57;2.77;;;;;;;;;;5114072;28;20111;-58
2023/07/19 08:02:45;;;;;;;5.57;2.60;;;;;;;;;;5111611;28;20103;-58
2023/07/19 08:05:12;;;;;;;5.53;2.20;;;;;;;;;;5109414;28;20453;-58
2023/07/19 08:07:39;;;;;;;6.67;2.73;;;;;;;;;;5108956;28;20020;-58
2023/07/19 08:10:06;;;;;;;10.93;3.23;;;;;;;;;;5109049;28;20395;-59
2023/07/19 08:12:33;;;;;;;13.20;2.70;;;;;;;;;;5108983;28;20019;-59
2023/07/19 08:15:00;;;;;;;10.17;2.77;;;;;;;;;;5111390;28;20030;-58
2023/07/19 08:17:26;;;;;;;6.33;2.50;;;;;;;;;;5113714;28;20019;-58
2023/07/19 08:19:53;;;;;;;7.50;2.60;;;;;;;;;;5113367;28;20110;-58
2023/07/19 08:22:27;;;;;;;9.00;2.90;;;;;;;;;;5113833;28;20371;-58
2023/07/19 08:24:54;;;;;;;6.47;3.08;;;;;;;;;;5113535;28;20024;-58
2023/07/19 08:27:21;;;;;;;6.57;3.10;;;;;;;;;;5111621;28;20422;-58
2023/07/19 08:29:48;;;;;;;10.00;2.83;;;;;;;;;;5108749;28;20536;-58
2023/07/19 08:32:15;;;;;;;10.93;3.53;;;;;;;;;;5108989;28;20028;-58
2023/07/19 08:34:41;;;;;;;13.63;2.83;;;;;;;;;;5108662;28;20026;-58
2023/07/19 08:37:08;;;;;;;14.77;4.60;;;;;;;;;;5108521;28;20082;-58
2023/07/19 08:39:35;;;;;;;31.63;3.00;;;;;;;;;;5110478;28;20029;-58
2023/07/19 08:42:03;;;;;;;4.13;1.90;;;;;;;;;;5113237;28;20028;-58
2023/07/19 08:44:30;;;;;;;13.10;2.33;;;;;;;;;;5113182;28;20027;-58
2023/07/19 08:46:56;;;;;;;3.37;1.73;;;;;;;;;;5113326;28;20482;-58
2023/07/19 08:49:23;;;;;;;5.47;2.57;;;;;;;;;;5113263;28;20027;-58
2023/07/19 08:51:51;;;;;;;9.47;3.80;;;;;;;;;;5111597;28;20110;-58
2023/07/19 08:54:18;;;;;;;7.70;2.50;;;;;;;;;;5107978;28;20554;-58
2023/07/19 08:56:45;;;;;;;7.37;2.50;;;;;;;;;;5107461;28;20031;-59
2023/07/19 08:59:12;;;;;;;8.87;2.70;;;;;;;;;;5108378;28;20028;-58
2023/07/19 09:01:39;;;;;;;5.77;2.50;;;;;;;;;;5108278;28;20031;-58
2023/07/19 09:04:11;;;;;;;10.37;3.60;;;;;;;;;;5109782;28;20030;-58
2023/07/19 09:06:43;;;;;;;34.97;4.53;;;;;;;;;;5113077;28;20449;-58
2023/07/19 09:09:10;;;;;;;10.27;3.70;;;;;;;;;;5112853;28;20066;-58
2023/07/19 09:11:37;;;;;;;8.67;2.80;;;;;;;;;;5112145;28;20031;-58
2023/07/19 09:14:04;;;;;;;7.87;2.57;;;;;;;;;;5112988;28;20076;-58
2023/07/19 09:16:31;;;;;;;13.07;3.90;;;;;;;;;;5111604;28;20023;-58
2023/07/19 09:18:59;;;;;;;8.83;3.43;;;;;;;;;;5107940;28;20034;-58
2023/07/19 09:21:37;;;;;;;9.03;3.27;;;;;;;;;;5108015;28;20035;-58
2023/07/19 09:24:04;;;;;;;7.87;3.20;;;;;;;;;;5107961;28;20027;-58
2023/07/19 09:26:51;;;;;;;8.23;2.90;;;;;;;;;;5107730;28;20102;-59
2023/07/19 09:29:18;;;;;;;27.80;3.90;;;;;;;;;;5090063;28;20085;-58
2023/07/19 09:31:56;;;;;;;6.50;2.47;;;;;;;;;;5092351;28;20031;-58
2023/07/19 09:34:26;;;;;;;6.97;2.43;;;;;;;;;;5092321;28;20052;-58
2023/07/19 09:36:53;;;;;;;6.33;2.93;;;;;;;;;;5092251;28;20024;-58
2023/07/19 09:39:20;;;;;;;7.47;3.10;;;;;;;;;;5092140;28;20028;-58
2023/07/19 09:41:47;;;;;;;25.07;3.87;;;;;;;;;;5089979;28;20031;-58
2023/07/19 09:44:18;;;;;;;9.53;3.17;;;;;;;;;;5087380;28;20035;-58
2023/07/19 09:46:45;;;;;;;5.27;2.97;;;;;;;;;;5087271;28;20586;-58
2023/07/19 09:49:13;;;;;;;18.17;2.93;;;;;;;;;;5087156;28;20031;-58
2023/07/19 09:51:41;;;;;;;7.93;2.83;;;;;;;;;;5087163;28;20440;-58
2023/07/19 09:54:09;;;;;;;5.57;2.70;;;;;;;;;;5089938;28;20036;-58
2023/07/19 09:56:37;;;;;;;4.17;2.60;;;;;;;;;;5091876;28;20398;-58
2023/07/19 09:59:05;;;;;;;4.30;2.37;;;;;;;;;;5091978;28;20102;-58
2023/07/19 10:01:32;;;;;;;8.43;2.93;;;;;;;;;;5092144;28;20039;-58
2023/07/19 10:03:59;;;;;;;15.17;3.83;;;;;;;;;;5091718;28;20017;-58
2023/07/19 10:06:32;;;;;;;2.63;2.00;;;;;;;;;;5089849;28;20028;-58
2023/07/19 10:09:17;;;;;;;12.80;2.50;;;;;;;;;;5089356;28;20482;-58
2023/07/19 10:11:43;;;;;;;5.68;2.15;;;;;;;;;;5091163;28;20031;-58
2023/07/19 10:14:10;;;;;;;4.03;2.37;;;;;;;;;;5091126;28;20081;-58
2023/07/19 10:16:37;;;;;;;3.63;2.23;;;;;;;;;;5090555;28;20471;-58
2023/07/19 10:19:13;;;;;;;4.53;2.13;;;;;;;;;;5093378;28;20073;-58
2023/07/19 10:21:44;;;;;;;5.30;2.60;;;;;;;;;;5095624;28;20425;-58
2023/07/19 10:24:11;;;;;;;6.57;2.73;;;;;;;;;;5095584;28;20017;-58
2023/07/19 10:26:38;;;;;;;2.77;1.87;;;;;;;;;;5095624;28;20024;-58
2023/07/19 10:29:05;;;;;;;5.03;2.50;;;;;;;;;;5114355;28;20076;-58
2023/07/19 10:31:32;;;;;;;4.77;2.50;;;;;;;;;;5113371;28;20478;-58
2023/07/19 10:33:58;;;;;;;6.07;2.67;;;;;;;;;;5110840;28;20042;-58
2023/07/19 10:36:25;;;;;;;14.13;2.30;;;;;;;;;;5110699;28;20032;-58
2023/07/19 10:38:52;;;;;;;11.80;2.83;;;;;;;;;;5111039;28;20023;-58
2023/07/19 10:41:20;;;;;;;8.23;1.77;;;;;;;;;;5110941;28;20096;-58
2023/07/19 10:43:47;;;;;;;19.47;1.73;;;;;;;;;;5113546;28;20047;-58
2023/07/19 10:46:13;;;;;;;4.93;2.20;;;;;;;;;;5115662;28;20489;-58
2023/07/19 10:48:40;;;;;;;9.80;2.60;;;;;;;;;;5115383;28;20051;-58
2023/07/19 10:51:10;;;;;;;7.17;3.20;;;;;;;;;;5115466;28;20382;-58
2023/07/19 10:53:47;;;;;;;6.77;2.70;;;;;;;;;;5115172;28;20024;-58
2023/07/19 10:56:13;;;;;;;39.77;3.97;;;;;;;;;;5112868;28;20057;-58
2023/07/19 10:58:40;;;;;;;7.67;2.17;;;;;;;;;;5110465;28;20024;-58
2023/07/19 11:01:07;;;;;;;21.47;2.17;;;;;;;;;;5109123;28;20063;-58
2023/07/19 11:03:34;;;;;;;10.23;3.37;;;;;;;;;;5109422;28;20105;-58
2023/07/19 11:06:02;;;;;;;6.70;2.17;;;;;;;;;;5109704;28;20744;-58
2023/07/19 11:08:29;;;;;;;5.27;2.23;;;;;;;;;;5114472;28;20020;-58
2023/07/19 11:10:57;;;;;;;7.10;2.53;;;;;;;;;;5114503;28;20030;-59
2023/07/19 11:13:25;;;;;;;16.83;3.57;;;;;;;;;;5114986;28;20020;-58
2023/07/19 11:15:53;;;;;;;5.00;3.10;;;;;;;;;;5115016;28;20031;-57
2023/07/19 11:18:23;;;;;;;4.40;2.17;;;;;;;;;;5113898;28;20059;-58
2023/07/19 11:20:50;;;;;;;5.77;2.83;;;;;;;;;;5109864;28;20023;-58
2023/07/19 11:23:17;;;;;;;25.77;3.23;;;;;;;;;;5109983;28;20378;-58
2023/07/19 11:25:44;;;;;;;5.63;2.63;;;;;;;;;;5109896;28;20023;-58
2023/07/19 11:28:12;;;;;;;5.17;2.63;;;;;;;;;;5109923;28;20386;-58
2023/07/19 11:30:40;;;;;;;19.20;3.23;;;;;;;;;;5110528;28;20046;-58
2023/07/19 11:33:08;;;;;;;7.57;2.40;;;;;;;;;;5114461;28;20528;-58
2023/07/19 11:35:35;;;;;;;4.50;2.50;;;;;;;;;;5114405;28;20067;-58
2023/07/19 11:38:01;;;;;;;9.83;2.73;;;;;;;;;;5114514;28;20523;-58
2023/07/19 11:40:28;;;;;;;4.70;2.33;;;;;;;;;;5114714;28;20038;-59
2023/07/19 11:42:58;;;;;;;4.23;1.30;;;;;;;;;;5114410;28;20501;-58
2023/07/19 11:45:26;;;;;;;6.20;2.20;;;;;;;;;;5109514;28;20020;-58
2023/07/19 11:47:58;;;;;;;9.40;2.30;;;;;;;;;;5109783;28;20066;-58
2023/07/19 11:50:25;;;;;;;6.73;2.23;;;;;;;;;;5109518;28;20095;-58
2023/07/19 11:53:00;;;;;;;4.20;1.97;;;;;;;;;;5109571;28;20055;-58
2023/07/19 11:55:27;;;;;;;4.63;2.67;;;;;;;;;;5109843;28;20474;-58
2023/07/19 11:57:55;;;;;;;4.20;2.53;;;;;;;;;;5114050;28;20051;-58
2023/07/19 12:00:24;;;;;;;13.27;2.77;;;;;;;;;;5114058;28;20020;-58
2023/07/19 12:02:52;;;;;;;12.53;3.10;;;;;;;;;;5113645;28;20023;-58
2023/07/19 12:05:20;;;;;;;18.37;2.53;;;;;;;;;;5114329;28;20538;-58
2023/07/19 12:07:47;;;;;;;22.77;3.53;;;;;;;;;;5114093;28;20073;-58
2023/07/19 12:10:14;;;;;;;8.83;3.43;;;;;;;;;;5109126;28;20043;-58
2023/07/19 12:12:41;;;;;;;3.27;1.97;;;;;;;;;;5109203;28;20019;-58
2023/07/19 12:15:08;;;;;;;8.07;2.57;;;;;;;;;;5108924;28;20111;-58
2023/07/19 12:17:36;;;;;;;22.60;3.50;;;;;;;;;;5108769;28;20035;-58
2023/07/19 12:20:03;;;;;;;6.50;2.10;;;;;;;;;;5108890;28;20122;-58
2023/07/19 12:22:30;;;;;;;5.87;1.87;;;;;;;;;;5113739;28;20435;-58
2023/07/19 12:25:00;;;;;;;5.53;2.17;;;;;;;;;;5113711;28;20467;-58
2023/07/19 12:27:27;;;;;;;8.17;2.47;;;;;;;;;;5113724;28;20344;-57
2023/07/19 12:29:53;;;;;;;15.03;2.40;;;;;;;;;;5113534;28;20016;-57
2023/07/19 12:32:20;;;;;;;6.20;2.50;;;;;;;;;;5113045;28;20023;-58
2023/07/19 12:34:47;;;;;;;2.90;1.60;;;;;;;;;;5109171;28;20069;-58
2023/07/19 12:37:14;;;;;;;4.97;2.17;;;;;;;;;;5108472;28;20030;-57
2023/07/19 12:39:41;;;;;;;3.07;1.83;;;;;;;;;;5108589;28;20019;-58
2023/07/19 12:42:08;;;;;;;5.40;2.03;;;;;;;;;;5108573;28;20110;-58
2023/07/19 12:44:35;;;;;;;9.33;2.30;;;;;;;;;;5108595;28;20027;-58
2023/07/19 12:47:02;;;;;;;7.00;3.00;;;;;;;;;;5112673;28;20054;-58
2023/07/19 12:49:29;;;;;;;7.87;2.40;;;;;;;;;;5113267;28;20024;-58
2023/07/19 12:51:56;;;;;;;5.60;2.20;;;;;;;;;;5113058;28;20027;-57
2023/07/19 12:54:22;;;;;;;14.17;2.93;;;;;;;;;;5112883;28;20538;-58
2023/07/19 12:56:49;;;;;;;8.63;2.50;;;;;;;;;;5113250;28;20364;-58
2023/07/19 12:59:16;;;;;;;6.23;2.53;;;;;;;;;;5110019;28;20031;-58
2023/07/19 13:01:42;;;;;;;4.33;2.10;;;;;;;;;;5108358;28;20030;-57
2023/07/19 13:04:10;;;;;;;7.07;2.07;;;;;;;;;;5108189;28;20072;-58
2023/07/19 13:06:37;;;;;;;5.23;1.90;;;;;;;;;;5108383;28;20024;-58
2023/07/19 13:09:06;;;;;;;4.33;2.17;;;;;;;;;;5107974;28;20027;-58
2023/07/19 13:11:36;;;;;;;11.43;2.27;;;;;;;;;;5110663;28;20349;-58
2023/07/19 13:14:06;;;;;;;9.13;1.70;;;;;;;;;;5108982;28;20020;-58
2023/07/19 13:16:33;;;;;;;12.27;2.40;;;;;;;;;;5111301;28;20092;-58
2023/07/19 13:19:00;;;;;;;17.00;2.13;;;;;;;;;;5112803;28;20027;-58
2023/07/19 13:21:27;;;;;;;2.83;1.27;;;;;;;;;;5112428;28;20016;-58
2023/07/19 13:23:53;;;;;;;4.47;1.80;;;;;;;;;;5107865;28;20544;-58
2023/07/19 13:26:20;;;;;;;2.17;1.10;;;;;;;;;;5107265;28;20160;-58
2023/07/19 13:28:48;;;;;;;6.87;1.30;;;;;;;;;;5107069;28;20020;-58
2023/07/19 13:31:15;;;;;;;8.00;2.93;;;;;;;;;;5106454;28;20039;-58
2023/07/19 13:33:42;;;;;;;13.80;1.80;;;;;;;;;;5109366;28;20027;-58
2023/07/19 13:36:09;;;;;;;3.53;1.50;;;;;;;;;;5112331;28;20035;-58
2023/07/19 13:38:35;;;;;;;16.30;1.90;;;;;;;;;;5112138;28;20110;-58
2023/07/19 13:41:02;;;;;;;7.53;2.47;;;;;;;;;;5112228;28;20069;-58
2023/07/19 13:43:28;;;;;;;18.27;2.70;;;;;;;;;;5113827;28;20016;-57
2023/07/19 13:45:55;;;;;;;6.60;2.70;;;;;;;;;;5114161;28;20027;-58
2023/07/19 13:48:22;;;;;;;8.83;2.67;;;;;;;;;;5110641;28;20450;-58
2023/07/19 13:50:49;;;;;;;11.77;2.33;;;;;;;;;;5110923;28;20034;-58
2023/07/19 13:53:15;;;;;;;10.07;2.43;;;;;;;;;;5110798;28;20024;-59
2023/07/19 13:55:43;;;;;;;20.50;3.43;;;;;;;;;;5112487;28;20085;-58
2023/07/19 13:58:09;;;;;;;4.03;2.23;;;;;;;;;;5115576;28;20035;-58
2023/07/19 14:00:36;;;;;;;3.23;2.00;;;;;;;;;;5116552;28;20098;-58
2023/07/19 14:03:03;;;;;;;3.10;1.73;;;;;;;;;;5116029;28;20431;-58
2023/07/19 14:05:29;;;;;;;5.17;1.87;;;;;;;;;;5116397;28;20105;-59
2023/07/19 14:07:56;;;;;;;6.07;2.70;;;;;;;;;;5114869;28;20046;-58
2023/07/19 14:10:23;;;;;;;8.03;3.10;;;;;;;;;;5114643;27;20020;-58
2023/07/19 14:12:49;;;;;;;9.47;2.33;;;;;;;;;;5128992;27;20541;-56
2023/07/19 14:15:16;;;;;;;8.27;3.00;;;;;;;;;;5121647;27;20035;-59
2023/07/19 14:17:43;;;;;;;12.90;2.97;;;;;;;;;;5110163;28;20168;-59
2023/07/19 14:20:10;;;;;;;3.03;1.70;;;;;;;;;;5113980;28;20115;-58
2023/07/19 14:22:36;;;;;;;6.30;2.27;;;;;;;;;;5115408;28;20024;-59
2023/07/19 14:25:03;;;;;;;4.23;1.90;;;;;;;;;;5115924;28;20351;-58
2023/07/19 14:27:30;;;;;;;11.70;2.37;;;;;;;;;;5115401;28;20016;-59
2023/07/19 14:29:57;;;;;;;16.47;2.43;;;;;;;;;;5115195;28;20129;-58
2023/07/19 14:32:24;;;;;;;3.87;1.97;;;;;;;;;;5111111;28;20404;-59
2023/07/19 14:34:50;;;;;;;7.70;2.33;;;;;;;;;;5110045;28;20028;-58
2023/07/19 14:37:17;;;;;;;4.17;2.17;;;;;;;;;;5109231;28;20039;-58
2023/07/19 14:39:44;;;;;;;10.87;2.57;;;;;;;;;;5110468;28;20035;-59